»·PEaware :: AAY121 KFAT-KLAS

AAY121 :: KFAT-KLAS

FLIGHT INFORMATION

Flight Status: Arrived
Operator:
Allegiant Air
More flights by this operator :: More flights under this callsign
Pilot: Mark D. (12)
Aircraft: AIRBUS A319
(A319)
More flights by this aircraft type
Origin: KFAT Fresno Yosemite Intl
United States
Destination: KLAS McCarran Intl
United States
More flights between these airports :: More routes between these airports
Route: +YOSE3 CZQ OAL BTY SUNST4
File this flight plan on PilotEdge
Remarks: www.pilotcentral.org / PBN / A1B1C1D1O1S1 NAV / RNVD1E2A1 DOF / 181006 REG / N319NV EET / KZLA0026 OPR / AAY PER / C RMK / TCAS SIMBRIEF
Altitude:
(Current/Filed)
29,000ft
Speed:
(Current/Filed)
462kts
Departed: 06-Oct-18 09:33 AM
Arrived: 06-Oct-18 10:20 AM
Distance/Time
Traveled:
224nm/0:47
Distance/Time
To Go:
Arrived

Flight Plot

Page will automatically refresh every two minutes.

Flight plan parsing failed; only flown route is shown


Map Options




Map Legend


Flown Route
Filed Route
Departure Airport
Arrival Airport
Navaid (VOR, NDB)
Fix

Horizontal Profiles

Position Reports

Time Latitude Longitude Heading Altitude Ground
Speed
06-Oct-18 09:09 36.771970 -119.717849 235 350ft 0kts
06-Oct-18 09:10 36.771969 -119.717851 235 350ft 0kts
06-Oct-18 09:11 36.771969 -119.717851 235 350ft 0kts
06-Oct-18 09:12 36.771969 -119.717851 235 350ft 0kts
06-Oct-18 09:13 36.771969 -119.717851 235 350ft 0kts
06-Oct-18 09:14 36.771969 -119.717851 235 350ft 0kts
06-Oct-18 09:15 36.771969 -119.717851 235 350ft 0kts
06-Oct-18 09:16 36.771969 -119.717851 235 350ft 0kts
06-Oct-18 09:17 36.771969 -119.717851 235 350ft 0kts
06-Oct-18 09:18 36.771969 -119.717851 235 350ft 0kts
06-Oct-18 09:19 36.771969 -119.717851 235 350ft 0kts
06-Oct-18 09:20 36.771969 -119.717851 235 350ft 0kts
06-Oct-18 09:21 36.771969 -119.717851 235 350ft 0kts
06-Oct-18 09:22 36.771969 -119.717851 235 350ft 0kts
06-Oct-18 09:23 36.771969 -119.717851 235 350ft 0kts
06-Oct-18 09:24 36.771969 -119.717851 235 350ft 0kts
06-Oct-18 09:25 36.771969 -119.717851 235 350ft 0kts
06-Oct-18 09:26 36.771969 -119.717851 235 350ft 0kts
06-Oct-18 09:27 36.771969 -119.717851 235 350ft 0kts
06-Oct-18 09:28 36.772306 -119.717459 184 350ft 2kts
06-Oct-18 09:29 36.772516 -119.717590 126 350ft 0kts
06-Oct-18 09:30 36.772515 -119.717588 126 350ft 0kts
06-Oct-18 09:31 36.772514 -119.717586 126 350ft 0kts
06-Oct-18 09:32 36.772144 -119.715688 124 350ft 7kts
06-Oct-18 09:33 36.770565 -119.712937 124 350ft 12kts
06-Oct-18 09:34 36.770653 -119.710689 302 350ft 5kts
06-Oct-18 09:35 36.783922 -119.733755 307 773ft 159kts
06-Oct-18 09:36 36.815033 -119.781488 309 4027ft 191kts
06-Oct-18 09:37 36.864877 -119.811351 3 6971ft 240kts
06-Oct-18 09:38 36.919642 -119.750962 50 9909ft 290kts
06-Oct-18 09:39 36.967168 -119.667935 51 10719ft 315kts
06-Oct-18 09:40 37.022722 -119.569098 50 13592ft 368kts
06-Oct-18 09:41 37.083417 -119.460735 48 16863ft 389kts
06-Oct-18 09:42 37.147024 -119.346804 47 19677ft 408kts
06-Oct-18 09:43 37.213222 -119.227860 46 22029ft 424kts
06-Oct-18 09:44 37.280935 -119.103615 54 23926ft 448kts
06-Oct-18 09:45 37.290030 -118.938714 88 25588ft 491kts
06-Oct-18 09:46 37.280333 -118.765796 88 26953ft 500kts
06-Oct-18 09:47 37.270958 -118.589797 88 28123ft 509kts
06-Oct-18 09:48 37.262113 -118.411686 88 28951ft 512kts
06-Oct-18 09:49 37.253683 -118.234142 88 28968ft 509kts
06-Oct-18 09:50 37.245790 -118.056608 88 28969ft 508kts
06-Oct-18 09:51 37.238986 -117.879746 88 28970ft 506kts
06-Oct-18 09:52 37.233830 -117.703161 88 28971ft 506kts
06-Oct-18 09:53 37.229063 -117.526424 88 28963ft 507kts
06-Oct-18 09:54 37.224761 -117.349439 88 28961ft 507kts
06-Oct-18 09:55 37.190776 -117.180687 129 28957ft 512kts
06-Oct-18 09:56 37.086889 -117.060500 141 28949ft 509kts
06-Oct-18 09:57 36.980759 -116.943660 142 28935ft 508kts
06-Oct-18 09:58 36.874094 -116.827195 142 28925ft 508kts
06-Oct-18 09:59 36.770411 -116.706325 134 28917ft 514kts
06-Oct-18 10:00 36.676405 -116.571599 134 28909ft 516kts
06-Oct-18 10:01 36.583612 -116.438878 134 28036ft 502kts
06-Oct-18 10:02 36.492671 -116.309538 134 24864ft 492kts
06-Oct-18 10:03 36.403441 -116.183892 134 21900ft 472kts
06-Oct-18 10:04 36.318738 -116.065136 134 19371ft 443kts
06-Oct-18 10:05 36.239971 -115.954920 133 16221ft 403kts
06-Oct-18 10:06 36.185329 -115.850098 113 15579ft 340kts
06-Oct-18 10:07 36.150233 -115.742966 112 14549ft 331kts
06-Oct-18 10:08 36.116557 -115.638766 113 13536ft 322kts
06-Oct-18 10:09 36.083671 -115.537292 112 12560ft 314kts
06-Oct-18 10:10 36.051659 -115.438494 113 11628ft 304kts
06-Oct-18 10:11 36.029247 -115.343618 96 10451ft 290kts
06-Oct-18 10:12 36.021572 -115.242788 95 10103ft 295kts
06-Oct-18 10:13 36.014593 -115.144069 95 8876ft 273kts
06-Oct-18 10:14 36.008839 -115.057209 94 8027ft 241kts
06-Oct-18 10:15 36.003998 -114.974642 95 8012ft 241kts
06-Oct-18 10:16 36.002069 -114.894162 79 6738ft 224kts
06-Oct-18 10:17 36.049711 -114.874488 328 5531ft 203kts
06-Oct-18 10:18 36.073665 -114.931366 270 4095ft 197kts
06-Oct-18 10:19 36.073777 -114.997957 268 4233ft 193kts
06-Oct-18 10:20 36.073551 -115.058218 268 3239ft 172kts
06-Oct-18 10:21 36.073530 -115.114784 268 2425ft 160kts
06-Oct-18 10:22 36.075088 -115.151083 319 2195ft 29kts
06-Oct-18 10:23 36.080997 -115.151648 309 2195ft 18kts
06-Oct-18 10:24 36.083436 -115.154988 335 2195ft 0kts
06-Oct-18 10:25 36.086196 -115.155589 30 2195ft 12kts
06-Oct-18 10:26 36.085945 -115.154117 154 2195ft 0kts
06-Oct-18 10:27 36.085943 -115.154116 154 2195ft 0kts
06-Oct-18 10:28 36.085943 -115.154116 154 2195ft 0kts
06-Oct-18 10:29 36.085943 -115.154116 154 2195ft 0kts
06-Oct-18 10:30 36.085943 -115.154116 154 2195ft 0kts
06-Oct-18 10:31 36.085943 -115.154116 154 2195ft 0kts
06-Oct-18 10:32 36.085943 -115.154116 154 2195ft 0kts
06-Oct-18 10:33 36.085943 -115.154116 154 2195ft 0kts
06-Oct-18 10:34 36.085943 -115.154116 154 2195ft 0kts
06-Oct-18 10:35 36.085943 -115.154116 154 2195ft 0kts
06-Oct-18 10:36 36.085943 -115.154116 154 2195ft 0kts

Navigation Log

Ident Type
Flight plan parsing failed, navigation log unavailable